Time;durP1;ratioP1;P1;durP2;ratioP2;P2;SDS_P1;SDS_P2;PMS_P1;PMS_P2;Temp;Humidity;BMP_temperature;BMP_pressure;BME280_temperature;BME280_humidity;BME280_pressure;Samples;Min_cycle;Max_cycle;Signal;HPM_P1;HPM_P2
2023/07/03 00:02:13;;;;;;;12.32;5.57;;;;;;;39.17;nan;100563.22;5105585;28;20060;-48
2023/07/03 00:04:45;;;;;;;13.57;4.82;;;;;;;39.78;nan;100557.25;5108243;28;20421;-48
2023/07/03 00:07:14;;;;;;;11.02;4.72;;;;;;;40.13;nan;100550.22;5093211;28;20052;-48
2023/07/03 00:09:42;;;;;;;12.48;5.93;;;;;;;39.76;nan;100551.16;5101710;28;20051;-48
2023/07/03 00:12:10;;;;;;;12.00;5.18;;;;;;;39.97;nan;100541.88;5099275;28;20052;-48
2023/07/03 00:14:37;;;;;;;12.80;5.32;;;;;;;39.95;nan;100546.81;5106077;28;20047;-48
2023/07/03 00:17:07;;;;;;;17.52;5.80;;;;;;;38.58;nan;100542.78;5111457;28;20055;-48
2023/07/03 00:19:34;;;;;;;14.18;5.85;;;;;;;38.12;nan;100547.81;5103946;28;20043;-48
2023/07/03 00:22:01;;;;;;;13.80;5.65;;;;;;;39.21;nan;100545.03;5105537;28;20448;-48
2023/07/03 00:24:29;;;;;;;18.40;7.07;;;;;;;39.73;nan;100537.88;5113685;28;20035;-48
2023/07/03 00:26:56;;;;;;;10.27;4.93;;;;;;;39.77;nan;100533.47;5107792;27;20529;-48
2023/07/03 00:29:23;;;;;;;20.08;6.93;;;;;;;38.95;nan;100530.19;5105853;28;20047;-48
2023/07/03 00:31:51;;;;;;;10.98;5.43;;;;;;;39.41;nan;100527.72;5106117;27;20067;-48
2023/07/03 00:34:18;;;;;;;14.02;5.55;;;;;;;39.94;nan;100528.56;5107198;28;20399;-48
2023/07/03 00:36:46;;;;;;;12.73;5.85;;;;;;;39.97;nan;100536.34;5101175;28;20056;-48
2023/07/03 00:39:14;;;;;;;16.35;6.65;;;;;;;39.81;nan;100531.84;5096468;28;20051;-48
2023/07/03 00:41:44;;;;;;;17.45;5.50;;;;;;;40.10;nan;100525.84;5102685;28;20056;-48
2023/07/03 00:44:19;;;;;;;15.27;5.93;;;;;;;40.00;nan;100524.75;5102529;28;20040;-48
2023/07/03 00:46:49;;;;;;;16.23;5.15;;;;;;;39.84;nan;100514.69;5100591;27;20121;-48
2023/07/03 00:49:17;;;;;;;13.63;5.38;;;;;;;39.65;nan;100517.09;5109175;28;20075;-48
2023/07/03 00:51:48;;;;;;;13.45;5.28;;;;;;;39.93;nan;100524.13;5114519;28;20054;-48
2023/07/03 00:54:15;;;;;;;15.73;5.55;;;;;;;40.04;nan;100522.25;5108790;28;20047;-48
2023/07/03 00:56:42;;;;;;;17.48;6.43;;;;;;;40.04;nan;100519.47;5102531;28;20047;-48
2023/07/03 00:59:08;;;;;;;18.75;6.15;;;;;;;40.00;nan;100523.88;5102739;28;20056;-48
2023/07/03 01:01:53;;;;;;;14.35;5.90;;;;;;;40.00;nan;100519.19;5112062;28;20054;-48
2023/07/03 01:04:26;;;;;;;14.02;5.13;;;;;;;40.05;nan;100509.22;5105400;28;20063;-48
2023/07/03 01:07:01;;;;;;;11.30;5.03;;;;;;;40.11;nan;100513.69;5109526;28;20059;-48
2023/07/03 01:09:35;;;;;;;18.55;5.95;;;;;;;39.87;nan;100513.31;5106371;28;20043;-48
2023/07/03 01:12:04;;;;;;;13.23;5.32;;;;;;;39.70;nan;100513.53;5101840;28;20871;-48
2023/07/03 01:14:33;;;;;;;17.08;5.95;;;;;;;39.79;nan;100511.88;5102982;28;20044;-48
2023/07/03 01:17:01;;;;;;;19.50;6.50;;;;;;;40.15;nan;100510.09;5111689;28;20105;-48
2023/07/03 01:19:32;;;;;;;15.52;6.20;;;;;;;40.28;nan;100503.22;5099112;28;20051;-48
2023/07/03 01:22:29;;;;;;;13.13;5.35;;;;;;;39.88;nan;100509.44;5100722;28;20052;-48
2023/07/03 01:25:01;;;;;;;14.73;5.93;;;;;;;40.03;nan;100511.44;5095689;28;20052;-48
2023/07/03 01:27:32;;;;;;;12.80;5.68;;;;;;;39.96;nan;100512.53;5095904;28;20127;-48
2023/07/03 01:30:00;;;;;;;14.63;5.97;;;;;;;39.85;nan;100505.28;5108221;28;20600;-48
2023/07/03 01:32:31;;;;;;;11.85;5.32;;;;;;;40.11;nan;100508.16;5108710;28;20062;-48
2023/07/03 01:34:58;;;;;;;17.70;5.85;;;;;;;40.40;nan;100507.66;5103208;27;20048;-48
2023/07/03 01:37:27;;;;;;;12.02;5.68;;;;;;;40.15;nan;100514.78;5098343;28;20140;-48
2023/07/03 01:39:56;;;;;;;17.80;6.60;;;;;;;40.09;nan;100507.59;5105739;28;20059;-48
2023/07/03 01:42:25;;;;;;;13.48;5.40;;;;;;;38.62;nan;100508.09;5105372;28;20464;-48
2023/07/03 01:44:51;;;;;;;12.65;5.45;;;;;;;39.04;nan;100507.31;5107062;28;20128;-48
2023/07/03 01:47:18;;;;;;;16.23;5.68;;;;;;;39.95;nan;100499.78;5101688;28;20062;-48
2023/07/03 01:49:45;;;;;;;18.30;5.97;;;;;;;39.02;nan;100498.47;5101825;27;20047;-48
2023/07/03 01:52:30;;;;;;;16.27;6.47;;;;;;;39.97;nan;100497.63;5112892;28;20044;-48
2023/07/03 01:55:06;;;;;;;11.93;5.75;;;;;;;38.97;nan;100501.16;5101465;28;20051;-48
2023/07/03 01:57:45;;;;;;;14.32;5.70;;;;;;;40.05;nan;100503.69;5111137;28;20048;-48
2023/07/03 02:00:18;;;;;;;12.98;6.05;;;;;;;39.63;nan;100491.66;5111696;28;20156;-48
2023/07/03 02:02:48;;;;;;;16.27;6.00;;;;;;;38.99;nan;100492.63;5109843;28;20047;-48
2023/07/03 02:05:22;;;;;;;14.57;6.05;;;;;;;39.83;nan;100499.19;5106025;28;20044;-48
2023/07/03 02:07:54;;;;;;;14.98;5.15;;;;;;;40.18;nan;100490.19;5103159;28;20452;-48
2023/07/03 02:10:21;;;;;;;13.20;5.78;;;;;;;37.56;nan;100493.63;5110742;28;20044;-48
2023/07/03 02:12:48;;;;;;;15.15;6.10;;;;;;;37.63;nan;100502.56;5093645;28;20067;-48
2023/07/03 02:15:14;;;;;;;16.63;5.55;;;;;;;37.95;nan;100501.84;5104256;28;20059;-48
2023/07/03 02:17:42;;;;;;;13.75;6.28;;;;;;;36.73;nan;100496.25;5101122;28;20040;-48
2023/07/03 02:20:16;;;;;;;15.77;5.25;;;;;;;38.02;nan;100493.38;5101717;28;20058;-48
2023/07/03 02:22:43;;;;;;;11.38;5.13;;;;;;;38.88;nan;100492.56;5094592;28;20464;-48
2023/07/03 02:25:11;;;;;;;13.10;6.22;;;;;;;38.03;nan;100492.28;5101317;28;20039;-49
2023/07/03 02:27:39;;;;;;;11.77;5.35;;;;;;;40.47;nan;100497.16;5097796;28;20063;-48
2023/07/03 02:30:06;;;;;;;13.10;6.35;;;;;;;40.25;nan;100489.91;5102033;28;20489;-48
2023/07/03 02:32:34;;;;;;;18.48;5.03;;;;;;;41.08;nan;100490.75;5103544;28;20484;-48
2023/07/03 02:35:01;;;;;;;29.63;6.22;;;;;;;40.80;nan;100498.50;5099852;28;20056;-48
2023/07/03 02:37:28;;;;;;;13.30;5.18;;;;;;;40.70;nan;100499.34;5108089;28;20056;-50
2023/07/03 02:39:55;;;;;;;17.27;5.50;;;;;;;40.65;nan;100496.59;5100880;28;20051;-48
2023/07/03 02:42:24;;;;;;;11.30;5.63;;;;;;;41.00;nan;100494.94;5101802;28;20047;-48
2023/07/03 02:44:52;;;;;;;12.52;5.72;;;;;;;39.36;nan;100502.81;5099831;28;20044;-48
2023/07/03 02:47:18;;;;;;;17.33;5.60;;;;;;;38.73;nan;100492.47;5108505;28;20052;-47
2023/07/03 02:49:45;;;;;;;15.35;6.47;;;;;;;39.95;nan;100487.88;5102566;27;20055;-48
2023/07/03 02:52:12;;;;;;;13.52;5.88;;;;;;;40.79;nan;100496.03;5103333;28;20051;-48
2023/07/03 02:54:39;;;;;;;16.98;6.05;;;;;;;39.73;nan;100508.28;5100335;28;20052;-48
2023/07/03 02:57:05;;;;;;;17.17;5.80;;;;;;;40.85;nan;100500.50;5095811;28;20055;-49
2023/07/03 02:59:32;;;;;;;12.45;4.90;;;;;;;40.79;nan;100490.47;5095812;28;20039;-49
2023/07/03 03:01:59;;;;;;;13.57;5.45;;;;;;;39.26;nan;100490.59;5102636;28;20043;-48
2023/07/03 03:04:26;;;;;;;14.70;6.32;;;;;;;39.37;nan;100488.75;5113594;28;20052;-47
2023/07/03 03:06:53;;;;;;;20.52;6.18;;;;;;;40.00;nan;100485.16;5092781;28;20048;-48
2023/07/03 03:09:19;;;;;;;12.63;5.30;;;;;;;40.98;nan;100474.97;5108422;28;20048;-49
2023/07/03 03:11:46;;;;;;;12.93;6.05;;;;;;;41.02;nan;100478.84;5112397;28;20066;-48
2023/07/03 03:14:13;;;;;;;18.10;6.60;;;;;;;40.98;nan;100486.06;5105040;28;20052;-48
2023/07/03 03:16:39;;;;;;;13.00;6.72;;;;;;;40.85;nan;100478.31;5108347;27;20580;-49
2023/07/03 03:19:06;;;;;;;11.23;5.30;;;;;;;41.45;nan;100468.19;5115001;27;20051;-48
2023/07/03 03:21:33;;;;;;;21.55;6.07;;;;;;;41.48;nan;100471.53;5117833;27;20071;-49
2023/07/03 03:24:00;;;;;;;14.50;6.15;;;;;;;41.34;nan;100469.34;5111345;27;20104;-47
2023/07/03 03:26:26;;;;;;;13.95;5.25;;;;;;;41.48;nan;100474.31;5117363;27;20397;-47
2023/07/03 03:28:53;;;;;;;13.93;5.32;;;;;;;41.85;nan;100479.41;5096970;28;20059;-49
2023/07/03 03:31:20;;;;;;;14.77;5.57;;;;;;;41.28;nan;100473.28;5105413;28;20052;-47
2023/07/03 03:33:47;;;;;;;12.82;6.70;;;;;;;40.65;nan;100471.66;5113605;27;20054;-46
2023/07/03 03:36:13;;;;;;;17.85;6.30;;;;;;;40.91;nan;100468.91;5116493;28;20103;-49
2023/07/03 03:38:40;;;;;;;14.18;6.03;;;;;;;41.41;nan;100469.91;5108876;28;20067;-48
2023/07/03 03:41:07;;;;;;;17.08;5.70;;;;;;;41.70;nan;100469.22;5102268;28;20056;-48
2023/07/03 03:43:34;;;;;;;16.52;5.78;;;;;;;41.41;nan;100469.91;5099660;28;20052;-49
2023/07/03 03:46:02;;;;;;;14.05;5.60;;;;;;;41.13;nan;100473.28;5105493;28;20051;-48
2023/07/03 03:48:30;;;;;;;14.38;6.18;;;;;;;41.20;nan;100473.84;5111492;28;20055;-48
2023/07/03 03:50:57;;;;;;;11.90;6.45;;;;;;;41.55;nan;100474.81;5122482;27;20336;-48
2023/07/03 03:53:24;;;;;;;12.35;6.78;;;;;;;41.71;nan;100473.66;5100326;28;20040;-49
2023/07/03 03:55:52;;;;;;;18.48;5.72;;;;;;;40.52;nan;100475.81;5107359;28;20412;-49
2023/07/03 03:58:20;;;;;;;12.18;6.00;;;;;;;39.76;nan;100473.72;5102658;28;20051;-49
2023/07/03 04:00:47;;;;;;;13.73;6.40;;;;;;;39.96;nan;100471.03;5118689;28;20680;-48
2023/07/03 04:03:14;;;;;;;16.30;5.55;;;;;;;38.99;nan;100465.00;5106983;28;20047;-48
2023/07/03 04:05:41;;;;;;;13.70;6.75;;;;;;;40.03;nan;100469.94;5101052;28;20163;-47
2023/07/03 04:08:08;;;;;;;19.65;6.47;;;;;;;40.12;nan;100471.06;5124471;28;20047;-47
2023/07/03 04:10:36;;;;;;;15.73;6.35;;;;;;;39.15;nan;100469.53;5105120;28;20051;-47
2023/07/03 04:13:03;;;;;;;17.25;7.13;;;;;;;38.71;nan;100469.78;5106402;28;20052;-48
2023/07/03 04:15:33;;;;;;;19.55;8.25;;;;;;;39.37;nan;100465.81;5109019;28;20056;-47
2023/07/03 04:18:00;;;;;;;16.80;6.88;;;;;;;39.53;nan;100470.34;5116680;27;20051;-47
2023/07/03 04:20:27;;;;;;;21.73;7.55;;;;;;;38.03;nan;100463.88;5101890;28;20130;-47
2023/07/03 04:22:54;;;;;;;17.27;6.68;;;;;;;39.33;nan;100470.19;5102434;28;20063;-48
2023/07/03 04:25:21;;;;;;;13.15;6.45;;;;;;;36.79;nan;100464.16;5106944;28;20048;-48
2023/07/03 04:27:48;;;;;;;17.15;7.65;;;;;;;38.79;nan;100466.53;5109399;27;20043;-48
2023/07/03 04:30:15;;;;;;;20.17;7.78;;;;;;;39.05;nan;100463.94;5103423;28;20063;-48
2023/07/03 04:32:42;;;;;;;20.17;8.40;;;;;;;37.94;nan;100461.56;5111241;28;20421;-48
2023/07/03 04:35:08;;;;;;;17.38;7.38;;;;;;;39.89;nan;100475.97;5107288;28;20048;-47
2023/07/03 04:37:36;;;;;;;18.20;9.18;;;;;;;39.51;nan;100463.41;5102304;28;20128;-48
2023/07/03 04:40:03;;;;;;;18.95;8.48;;;;;;;37.43;nan;100466.47;5121414;27;20058;-47
2023/07/03 04:42:32;;;;;;;20.40;8.07;;;;;;;38.96;nan;100462.75;5118666;28;20083;-48
2023/07/03 04:45:01;;;;;;;31.95;7.45;;;;;;;38.21;nan;100471.00;5118096;27;20051;-47
2023/07/03 04:47:28;;;;;;;17.77;7.60;;;;;;;40.03;nan;100461.66;5102200;28;20052;-49
2023/07/03 04:49:55;;;;;;;15.48;7.15;;;;;;;38.86;nan;100467.16;5107635;28;20064;-48
2023/07/03 04:52:27;;;;;;;18.90;7.70;;;;;;;38.86;nan;100461.63;5110584;28;20051;-47
2023/07/03 04:54:54;;;;;;;20.38;8.35;;;;;;;38.11;nan;100467.00;5113796;27;20532;-48
2023/07/03 04:57:21;;;;;;;19.05;8.52;;;;;;;39.99;nan;100467.72;5111084;28;20135;-47
2023/07/03 04:59:48;;;;;;;16.33;7.10;;;;;;;40.95;nan;100471.94;5113278;27;20083;-48
2023/07/03 05:02:19;;;;;;;14.63;7.20;;;;;;;38.89;nan;100466.63;5114924;27;20094;-47
2023/07/03 05:04:46;;;;;;;15.02;7.93;;;;;;;40.13;nan;100468.00;5118193;27;20051;-47
2023/07/03 05:07:13;;;;;;;25.23;8.20;;;;;;;40.20;nan;100465.00;5121040;27;20070;-48
2023/07/03 05:09:40;;;;;;;22.00;9.15;;;;;;;39.83;nan;100463.22;5113817;27;20069;-48
2023/07/03 05:12:07;;;;;;;14.02;7.10;;;;;;;40.40;nan;100466.13;5123662;27;20055;-47
2023/07/03 05:14:35;;;;;;;16.25;7.35;;;;;;;39.86;nan;100462.69;5108822;27;20499;-49
2023/07/03 05:17:02;;;;;;;15.35;7.47;;;;;;;41.29;nan;100461.06;5119477;27;20052;-48
2023/07/03 05:19:29;;;;;;;15.73;7.07;;;;;;;40.62;nan;100457.56;5101825;27;20593;-48
2023/07/03 05:21:56;;;;;;;18.33;7.13;;;;;;;41.96;nan;100458.81;5134270;27;20055;-48
2023/07/03 05:24:22;;;;;;;17.67;8.02;;;;;;;40.59;nan;100458.94;5117891;27;20062;-48
2023/07/03 05:26:49;;;;;;;15.02;7.72;;;;;;;39.69;nan;100459.31;5108221;27;20127;-48
2023/07/03 05:29:15;;;;;;;15.63;7.22;;;;;;;40.95;nan;100466.41;5102686;27;20058;-48
2023/07/03 05:31:44;;;;;;;20.50;7.35;;;;;;;39.59;nan;100468.41;5117585;27;20475;-48
2023/07/03 05:34:11;;;;;;;18.00;6.00;;;;;;;39.74;nan;100470.38;5125507;27;20066;-48
2023/07/03 05:36:37;;;;;;;14.82;6.03;;;;;;;36.21;nan;100475.22;5108235;27;20059;-48
2023/07/03 05:39:04;;;;;;;17.88;6.65;;;;;;;38.28;nan;100466.09;5126856;27;20051;-48
2023/07/03 05:41:30;;;;;;;16.65;6.63;;;;;;;38.85;nan;100464.66;5102200;27;20052;-48
2023/07/03 05:43:57;;;;;;;12.10;5.88;;;;;;;39.51;nan;100478.03;5116394;27;20051;-48
2023/07/03 05:46:23;;;;;;;15.90;6.75;;;;;;;36.41;nan;100483.03;5114559;27;20047;-48
2023/07/03 05:48:50;;;;;;;13.07;6.25;;;;;;;37.59;nan;100478.53;5112924;27;20463;-48
2023/07/03 05:51:17;;;;;;;13.88;5.97;;;;;;;36.99;nan;100478.22;5112448;27;20056;-49
2023/07/03 05:53:43;;;;;;;19.08;5.13;;;;;;;38.99;nan;100482.44;5125161;27;20077;-48
2023/07/03 05:56:10;;;;;;;14.07;6.43;;;;;;;38.51;nan;100475.94;5111275;27;20047;-48
2023/07/03 05:58:37;;;;;;;14.50;6.53;;;;;;;36.76;nan;100489.44;5110395;27;20105;-48
2023/07/03 06:01:03;;;;;;;16.38;6.65;;;;;;;38.25;nan;100483.16;5124872;27;20051;-48
2023/07/03 06:03:31;;;;;;;19.67;6.18;;;;;;;35.80;nan;100482.69;5110575;27;20111;-48
2023/07/03 06:05:58;;;;;;;17.02;6.28;;;;;;;38.00;nan;100482.59;5112680;27;20054;-47
2023/07/03 06:08:25;;;;;;;19.63;5.70;;;;;;;34.67;nan;100485.56;5120558;27;20048;-48
2023/07/03 06:10:52;;;;;;;16.95;6.57;;;;;;;35.18;nan;100492.31;5118445;27;20411;-49
2023/07/03 06:13:19;;;;;;;16.15;6.07;;;;;;;37.63;nan;100505.31;5106227;27;20055;-48
2023/07/03 06:15:45;;;;;;;12.10;5.50;;;;;;;37.77;nan;100489.25;5112618;27;20051;-48
2023/07/03 06:18:12;;;;;;;18.50;6.38;;;;;;;38.38;nan;100493.75;5101646;28;20298;-48
2023/07/03 06:20:38;;;;;;;20.60;5.53;;;;;;;37.00;nan;100488.16;5105325;27;20054;-48
2023/07/03 06:23:05;;;;;;;24.55;6.88;;;;;;;37.71;nan;100494.94;5112352;27;20052;-47
2023/07/03 06:25:32;;;;;;;15.18;5.88;;;;;;;36.23;nan;100496.97;5116740;27;20052;-48
2023/07/03 06:27:59;;;;;;;17.95;5.93;;;;;;;36.45;nan;100500.72;5107824;27;20051;-48
2023/07/03 06:30:26;;;;;;;15.00;6.60;;;;;;;36.40;nan;100495.13;5096664;28;20314;-48
2023/07/03 06:32:52;;;;;;;13.68;5.85;;;;;;;38.69;nan;100488.53;5098218;27;20156;-48
2023/07/03 06:35:19;;;;;;;14.45;5.60;;;;;;;38.28;nan;100490.91;5107116;27;20639;-48
2023/07/03 06:37:45;;;;;;;16.70;6.95;;;;;;;37.77;nan;100500.28;5127982;27;20043;-49
2023/07/03 06:40:14;;;;;;;16.92;5.35;;;;;;;40.72;nan;100505.47;5112242;27;20112;-48
2023/07/03 06:42:41;;;;;;;16.08;6.38;;;;;;;36.63;nan;100496.88;5107118;27;20056;-49
2023/07/03 06:45:08;;;;;;;19.88;7.65;;;;;;;41.09;nan;100498.78;5098876;28;20055;-48
2023/07/03 06:47:35;;;;;;;14.98;6.03;;;;;;;37.69;nan;100502.66;5110282;27;20158;-49
2023/07/03 06:50:02;;;;;;;19.58;7.60;;;;;;;38.23;nan;100507.44;5101124;27;20456;-48
2023/07/03 06:52:28;;;;;;;20.45;6.47;;;;;;;36.31;nan;100516.72;5100790;27;20053;-48
2023/07/03 06:54:55;;;;;;;14.15;5.35;;;;;;;36.81;nan;100511.53;5114352;27;20056;-48
2023/07/03 06:57:21;;;;;;;17.42;6.03;;;;;;;36.37;nan;100515.72;5114387;27;20043;-48
2023/07/03 06:59:50;;;;;;;17.58;6.03;;;;;;;40.48;nan;100513.50;5113600;27;20055;-48
2023/07/03 07:02:17;;;;;;;18.42;5.85;;;;;;;37.48;nan;100503.16;5100226;27;20052;-48
2023/07/03 07:04:45;;;;;;;17.48;5.75;;;;;;;39.25;nan;100516.59;5104991;28;20062;-48
2023/07/03 07:07:12;;;;;;;18.02;7.25;;;;;;;38.92;nan;100515.81;5116859;27;20049;-48
2023/07/03 07:09:38;;;;;;;13.48;5.85;;;;;;;36.45;nan;100516.38;5118424;27;20050;-48
2023/07/03 07:12:05;;;;;;;14.40;5.80;;;;;;;37.66;nan;100506.72;5099253;27;20048;-48
2023/07/03 07:14:32;;;;;;;16.35;5.28;;;;;;;37.70;nan;100513.44;5105138;27;20047;-48
2023/07/03 07:16:59;;;;;;;17.60;5.82;;;;;;;38.05;nan;100514.09;5100947;27;20405;-48
2023/07/03 07:19:25;;;;;;;16.08;5.75;;;;;;;39.83;nan;100515.78;5111531;27;20102;-48
2023/07/03 07:21:52;;;;;;;21.13;5.85;;;;;;;37.88;nan;100517.78;5103116;27;20435;-48
2023/07/03 07:24:21;;;;;;;13.82;5.47;;;;;;;37.90;nan;100520.28;5101767;28;20361;-48
2023/07/03 07:26:50;;;;;;;21.65;5.45;;;;;;;38.73;nan;100512.59;5116341;27;20580;-48
2023/07/03 07:29:17;;;;;;;18.05;5.82;;;;;;;35.72;nan;100524.25;5108475;27;20353;-48
2023/07/03 07:31:43;;;;;;;21.13;6.43;;;;;;;37.16;nan;100515.91;5126986;27;20058;-48
2023/07/03 07:34:11;;;;;;;14.70;5.80;;;;;;;36.20;nan;100532.16;5106129;28;20097;-48
2023/07/03 07:36:39;;;;;;;15.23;5.68;;;;;;;35.64;nan;100517.25;5111923;27;20039;-48
2023/07/03 07:39:07;;;;;;;20.15;5.68;;;;;;;38.63;nan;100514.44;5108484;28;20043;-48
2023/07/03 07:41:34;;;;;;;19.27;5.82;;;;;;;38.13;nan;100517.22;5094439;28;20047;-50
2023/07/03 07:44:01;;;;;;;15.57;6.07;;;;;;;35.46;nan;100520.97;5112278;28;20070;-48
2023/07/03 07:46:31;;;;;;;18.38;5.05;;;;;;;37.71;nan;100522.53;5112042;27;21646;-48
2023/07/03 07:48:59;;;;;;;16.15;5.65;;;;;;;35.36;nan;100517.97;5094587;28;20333;-48
2023/07/03 07:51:27;;;;;;;18.73;5.47;;;;;;;37.77;nan;100525.09;5107932;28;20063;-48
2023/07/03 07:53:56;;;;;;;17.20;5.63;;;;;;;37.07;nan;100529.28;5100910;27;20059;-48
2023/07/03 07:56:23;;;;;;;23.55;5.45;;;;;;;37.24;nan;100534.78;5099814;28;20040;-48
2023/07/03 07:58:50;;;;;;;16.77;5.65;;;;;;;37.10;nan;100529.63;5103145;28;20052;-48
2023/07/03 08:01:17;;;;;;;17.88;5.40;;;;;;;38.89;nan;100524.63;5101340;28;20062;-49
2023/07/03 08:03:44;;;;;;;10.77;5.30;;;;;;;38.29;nan;100525.72;5110330;27;20435;-48
2023/07/03 08:06:12;;;;;;;11.13;4.72;;;;;;;39.07;nan;100522.53;5098223;28;20113;-48
2023/07/03 08:08:39;;;;;;;16.73;4.90;;;;;;;38.88;nan;100514.66;5118997;28;20055;-48
2023/07/03 08:11:08;;;;;;;20.05;7.55;;;;;;;38.83;nan;100505.50;5105013;28;20070;-48
2023/07/03 08:13:38;;;;;;;18.85;6.72;;;;;;;40.13;nan;100517.00;5113729;28;20082;-48
2023/07/03 08:16:06;;;;;;;15.50;5.47;;;;;;;37.88;nan;100516.94;5105577;28;20062;-48
2023/07/03 08:18:33;;;;;;;17.52;5.68;;;;;;;38.44;nan;100509.28;5108997;28;20078;-48
2023/07/03 08:20:59;;;;;;;15.48;5.40;;;;;;;39.57;nan;100510.16;5102616;28;20048;-48
2023/07/03 08:23:26;;;;;;;18.23;5.32;;;;;;;38.81;nan;100521.50;5104866;28;20060;-48
2023/07/03 08:25:54;;;;;;;22.98;6.70;;;;;;;35.25;nan;100514.19;5101396;27;20051;-49
2023/07/03 08:28:22;;;;;;;18.67;6.65;;;;;;;39.78;nan;100507.47;5100794;28;20044;-48
2023/07/03 08:30:49;;;;;;;16.35;7.25;;;;;;;36.99;nan;100515.94;5100071;28;20060;-49
2023/07/03 08:33:16;;;;;;;22.15;5.25;;;;;;;38.02;nan;100512.69;5119328;27;20054;-48
2023/07/03 08:35:43;;;;;;;13.02;4.85;;;;;;;38.00;nan;100509.34;5117001;27;20107;-48
2023/07/03 08:38:13;;;;;;;19.20;4.72;;;;;;;36.87;nan;100513.28;5110216;27;20131;-48
2023/07/03 08:40:41;;;;;;;17.85;5.65;;;;;;;40.26;nan;100516.47;5112875;27;20055;-48
2023/07/03 08:43:13;;;;;;;20.38;6.88;;;;;;;37.61;nan;100513.00;5112915;27;20043;-48
2023/07/03 08:45:42;;;;;;;17.75;5.68;;;;;;;38.31;nan;100515.22;5119140;27;20084;-48
2023/07/03 08:48:20;;;;;;;19.90;5.55;;;;;;;38.03;nan;100519.06;5104826;28;20440;-48
2023/07/03 08:50:52;;;;;;;11.95;4.78;;;;;;;35.88;nan;100531.78;5097767;28;20040;-48
2023/07/03 08:53:22;;;;;;;12.02;4.55;;;;;;;36.49;nan;100523.91;5130389;27;20161;-48
2023/07/03 08:56:14;;;;;;;13.68;4.15;;;;;;;37.95;nan;100514.81;5114729;27;20047;-48
2023/07/03 08:58:42;;;;;;;13.80;5.47;;;;;;;39.95;nan;100519.16;5109307;27;20051;-48
2023/07/03 09:01:27;;;;;;;19.63;4.43;;;;;;;37.63;nan;100515.50;5121636;27;20119;-48
2023/07/03 09:04:25;;;;;;;11.85;3.78;;;;;;;39.04;nan;100523.03;5114697;28;20056;-48
2023/07/03 09:06:56;;;;;;;10.98;3.60;;;;;;;38.21;nan;100520.66;5107462;27;20056;-48
2023/07/03 09:09:46;;;;;;;15.07;4.13;;;;;;;39.33;nan;100528.25;5112224;27;20055;-48
2023/07/03 09:12:38;;;;;;;12.13;3.65;;;;;;;36.04;nan;100526.59;5112853;27;20059;-48
2023/07/03 09:15:21;;;;;;;9.35;3.40;;;;;;;38.85;nan;100520.72;5115499;27;20446;-48
2023/07/03 09:17:49;;;;;;;10.30;3.28;;;;;;;36.47;nan;100538.97;5102618;28;20047;-49
2023/07/03 09:20:17;;;;;;;11.18;3.72;;;;;;;37.17;nan;100528.63;5106752;27;20058;-48
2023/07/03 09:23:18;;;;;;;10.95;3.72;;;;;;;42.54;nan;100524.81;5097485;28;20047;-48
2023/07/03 09:25:52;;;;;;;7.75;3.20;;;;;;;35.74;nan;100538.66;5110049;27;20043;-48
2023/07/03 09:28:20;;;;;;;13.68;4.45;;;;;;;38.01;nan;100538.63;5111797;27;20043;-48
2023/07/03 09:30:46;;;;;;;8.43;3.38;;;;;;;39.38;nan;100534.66;5113693;27;20109;-49
2023/07/03 09:33:13;;;;;;;10.30;3.17;;;;;;;38.24;nan;100547.69;5103924;27;20055;-48
2023/07/03 09:35:41;;;;;;;12.55;2.85;;;;;;;37.10;nan;100546.13;5109584;27;20054;-48
2023/07/03 09:38:20;;;;;;;15.43;4.68;;;;;;;37.29;nan;100537.66;5131250;27;20111;-48
2023/07/03 09:40:50;;;;;;;;;;;;;;;38.10;nan;100547.25;5119683;27;20058;-48
2023/07/03 09:43:26;;;;;;;10.95;3.38;;;;;;;36.37;nan;100545.13;5101463;27;19931;-49
2023/07/03 09:46:08;;;;;;;11.15;3.63;;;;;;;40.23;nan;100546.63;5107220;27;20528;-48
2023/07/03 09:48:36;;;;;;;14.45;3.63;;;;;;;37.71;nan;100553.69;5113082;27;20116;-48
2023/07/03 09:51:20;;;;;;;14.35;3.95;;;;;;;36.58;nan;100559.28;5106517;27;20056;-48
2023/07/03 09:53:46;;;;;;;11.63;3.17;;;;;;;36.11;nan;100558.38;5099822;27;20044;-49
2023/07/03 09:56:16;;;;;;;11.27;3.60;;;;;;;36.61;nan;100575.31;5098926;27;20111;-48
2023/07/03 09:58:47;;;;;;;12.82;4.93;;;;;;;39.72;nan;100550.84;5105911;27;20059;-50
2023/07/03 10:01:30;;;;;;;10.02;4.43;;;;;;;39.64;nan;100552.22;5106301;27;20044;-49
2023/07/03 10:04:06;;;;;;;16.80;3.63;;;;;;;38.60;nan;100564.63;5101829;27;20631;-49
2023/07/03 10:06:36;;;;;;;11.95;3.38;;;;;;;36.86;nan;100566.69;5110417;27;20422;-49
2023/07/03 10:09:06;;;;;;;19.25;4.25;;;;;;;40.13;nan;100550.22;5105964;27;20075;-49
2023/07/03 10:12:00;;;;;;;10.13;3.78;;;;;;;35.50;nan;100568.88;5117516;27;20051;-50
2023/07/03 10:14:35;;;;;;;10.93;3.78;;;;;;;39.56;nan;100569.34;5099457;28;20055;-49
2023/07/03 10:17:04;;;;;;;12.80;4.25;;;;;;;37.38;nan;100569.19;5111110;27;20092;-49
2023/07/03 10:19:34;;;;;;;11.02;4.03;;;;;;;40.51;nan;100556.41;5103488;27;20048;-49
2023/07/03 10:22:01;;;;;;;12.25;3.65;;;;;;;37.72;nan;100558.09;5116455;27;20058;-49
2023/07/03 10:24:28;;;;;;;11.82;2.97;;;;;;;36.00;nan;100560.09;5114533;27;20059;-48
2023/07/03 10:26:58;;;;;;;11.30;2.95;;;;;;;41.44;nan;100557.22;5109736;27;20056;-50
2023/07/03 10:29:31;;;;;;;12.50;2.85;;;;;;;39.88;nan;100562.81;5126825;27;20059;-48
2023/07/03 10:32:04;;;;;;;12.00;3.80;;;;;;;37.42;nan;100562.09;5104585;27;20062;-49
2023/07/03 10:34:37;;;;;;;12.98;3.75;;;;;;;40.18;nan;100558.53;5109214;27;20116;-49
2023/07/03 10:37:06;;;;;;;10.73;3.42;;;;;;;39.48;nan;100555.97;5108434;27;20487;-48
2023/07/03 10:39:47;;;;;;;10.18;3.40;;;;;;;38.61;nan;100563.56;5113259;27;20096;-49
2023/07/03 10:42:38;;;;;;;14.27;4.47;;;;;;;36.74;nan;100573.09;5100608;27;20063;-47
2023/07/03 10:45:09;;;;;;;13.80;3.45;;;;;;;38.82;nan;100565.41;5100719;27;20071;-49
2023/07/03 10:47:46;;;;;;;12.80;3.22;;;;;;;38.61;nan;100558.06;5119564;27;20050;-48
2023/07/03 10:50:14;;;;;;;12.70;4.07;;;;;;;40.33;nan;100575.19;5103418;27;20040;-48
2023/07/03 10:53:02;;;;;;;11.68;3.58;;;;;;;39.18;nan;100567.66;5099436;27;20048;-48
2023/07/03 10:56:01;;;;;;;13.48;2.78;;;;;;;39.76;nan;100573.28;5104589;27;20052;-48
2023/07/03 10:58:43;;;;;;;12.88;2.70;;;;;;;38.10;nan;100578.44;5099793;28;20059;-48
2023/07/03 11:01:30;;;;;;;9.73;2.67;;;;;;;40.11;nan;100569.03;5112504;27;20048;-47
2023/07/03 11:04:08;;;;;;;9.95;3.40;;;;;;;42.41;nan;100577.34;5102622;28;20048;-48
2023/07/03 11:07:21;;;;;;;13.13;4.05;;;;;;;41.25;nan;100571.66;5105397;27;20058;-48
2023/07/03 11:10:00;;;;;;;12.20;3.85;;;;;;;41.13;nan;100581.38;5095008;27;20043;-48
2023/07/03 11:12:42;;;;;;;11.25;2.70;;;;;;;40.40;nan;100579.63;5098150;27;20047;-48
2023/07/03 11:15:22;;;;;;;13.65;3.42;;;;;;;42.36;nan;100581.84;5111095;27;20050;-48
2023/07/03 11:17:56;;;;;;;12.30;2.65;;;;;;;39.45;nan;100564.81;5099752;28;20055;-48
2023/07/03 11:20:35;;;;;;;9.50;2.67;;;;;;;38.18;nan;100594.56;5102472;27;20090;-48
2023/07/03 11:23:12;;;;;;;11.38;2.72;;;;;;;38.32;nan;100583.13;5097198;27;20079;-48
2023/07/03 11:25:45;;;;;;;11.90;3.30;;;;;;;36.87;nan;100582.13;5113760;27;20058;-48
2023/07/03 11:28:33;;;;;;;7.90;2.33;;;;;;;33.61;nan;100579.06;5093347;28;20044;-48
2023/07/03 11:31:02;;;;;;;11.15;2.70;;;;;;;35.70;nan;100576.72;5099235;28;20063;-47
2023/07/03 11:33:31;;;;;;;10.80;2.92;;;;;;;35.13;nan;100582.78;5105505;28;20051;-47
2023/07/03 11:36:01;;;;;;;12.68;3.17;;;;;;;38.44;nan;100600.38;5106743;28;20371;-48
2023/07/03 11:38:28;;;;;;;11.85;3.55;;;;;;;37.60;nan;100590.44;5116548;27;20360;-48
2023/07/03 11:40:58;;;;;;;9.27;2.42;;;;;;;40.43;nan;100592.94;5113267;27;20052;-47
2023/07/03 11:43:39;;;;;;;15.70;3.28;;;;;;;38.72;nan;100598.47;5105184;27;20589;-49
2023/07/03 11:46:26;;;;;;;14.23;3.10;;;;;;;41.10;nan;100599.41;5100035;28;20139;-48
2023/07/03 11:48:57;;;;;;;13.00;3.15;;;;;;;40.54;nan;100600.16;5109944;28;20640;-48